Terminal Aerodrome Forecast
Issued by NWS Wakefield, VA

Home | Current Version | Previous Version | Text Only | Print | Product List | Glossary On
Versions: 1 2 3 4 5 6 7 8 9 10 11 12 13 14 15 16 17 18 19 20
000
FTUS41 KAKQ 211700
TAFORF
TAF
KORF 211730Z 2118/2218 05004KT P6SM SCT050
     FM212000 10005KT P6SM BKN040
     FM220200 20005KT P6SM BKN120
     FM221400 24005KT P6SM SCT050 BKN120=

USA.gov is the U.S. government's official web portal to all federal, state and local government web resources and services.